Verwoerd International Airport

Airport
ICAO code: 
FAPE
IATA Code: 
PLZ
Summary
ICAO Region: 
AFI
Territory: 
Location: 
, Eastern Cape
Serving: 
Port Elizabeth
Elevation: 
226 ft
Coordinates: 
Aerial View: 
33° 59' 5.708" S, 25° 37' 2.19" E
Metar
Observation
FAPE 262300Z 23008KT 6000 -DZ OVC013 19/18 Q1014 NOSIG
Station
Port Elizabeth, Port E Apt
Date/Time
2022-01-26 23:00:00
Wind direction
230°
Wind speed
08 kts
Lowest cloud amount
overcast
Temperature
19°C
Dew point
18°C
Humidity
93%
QNH
1014 hPa
Weather condition
n/a

Runways

Designator Length Width Surface Rops
10/28 1178 18 GRS No/No
17/35 1677 46 ASP Yes/Yes
8/26 1980 46 ASP Yes/Yes
Airport map: 
Aerial View: 

SKYbrary Partners:

Safety knowledge contributed by: